Time;durP1;ratioP1;P1;durP2;ratioP2;P2;SDS_P1;SDS_P2;PMS_P1;PMS_P2;Temp;Humidity;BMP_temperature;BMP_pressure;BME280_temperature;BME280_humidity;BME280_pressure;Samples;Min_cycle;Max_cycle;Signal;HPM_P1;HPM_P2
2023/04/12 00:00:55;;;;;;;9.00;8.00;;;;;;;12.37;51.99;98386.06;5091114;28;20408;-77
2023/04/12 00:03:21;;;;;;;10.20;9.00;;;;;;;12.46;52.04;98381.28;5091104;28;20020;-77
2023/04/12 00:05:47;;;;;;;10.00;9.00;;;;;;;12.50;52.44;98390.41;5089771;28;20071;-78
2023/04/12 00:08:15;;;;;;;9.00;8.10;;;;;;;12.53;52.35;98385.50;5090010;28;20100;-77
2023/04/12 00:10:40;;;;;;;9.18;8.27;;;;;;;12.33;52.24;98358.41;5091142;28;20020;-78
2023/04/12 00:13:07;;;;;;;8.32;7.50;;;;;;;11.54;52.37;98230.25;5091043;28;20024;-78
2023/04/12 00:15:32;;;;;;;8.70;7.90;;;;;;;12.47;51.87;98396.97;5091006;28;20099;-77
2023/04/12 00:17:57;;;;;;;8.93;7.82;;;;;;;12.19;52.22;98341.03;5091012;28;20063;-78
2023/04/12 00:20:23;;;;;;;8.35;7.53;;;;;;;12.50;51.96;98388.56;5091934;28;20111;-78
2023/04/12 00:22:48;;;;;;;7.85;7.05;;;;;;;12.04;52.12;98310.44;5094973;28;20480;-78
2023/04/12 00:25:14;;;;;;;9.15;7.82;;;;;;;11.61;51.96;98285.72;5094714;28;20079;-77
2023/04/12 00:27:39;;;;;;;8.80;7.88;;;;;;;12.46;52.06;98384.75;5094861;28;20052;-77
2023/04/12 00:30:07;;;;;;;8.40;7.47;;;;;;;12.49;51.95;98376.38;5094578;28;20493;-77
2023/04/12 00:32:32;;;;;;;7.90;7.03;;;;;;;12.11;52.13;98320.94;5094679;28;20024;-78
2023/04/12 00:34:57;;;;;;;8.55;7.65;;;;;;;12.28;52.06;98339.72;5094511;28;20020;-78
2023/04/12 00:37:23;;;;;;;7.90;7.10;;;;;;;12.32;52.17;98348.84;5094564;28;20496;-78
2023/04/12 00:39:48;;;;;;;8.20;7.40;;;;;;;12.29;51.66;98343.97;5094612;28;20023;-78
2023/04/12 00:42:14;;;;;;;7.72;7.03;;;;;;;12.05;52.12;98319.16;5094458;28;20073;-78
2023/04/12 00:44:39;;;;;;;7.45;6.75;;;;;;;12.41;51.64;98382.75;5094340;28;20107;-77
2023/04/12 00:47:06;;;;;;;7.72;7.00;;;;;;;12.43;51.57;98373.78;5094388;28;20024;-79
2023/04/12 00:49:32;;;;;;;8.98;7.63;;;;;;;12.43;51.72;98360.56;5094277;28;20105;-78
2023/04/12 00:52:04;;;;;;;8.43;7.60;;;;;;;12.45;51.85;98355.84;5094120;28;20028;-78
2023/04/12 00:54:31;;;;;;;8.35;7.07;;;;;;;12.11;51.84;98318.31;5092983;28;20118;-78
2023/04/12 00:56:57;;;;;;;8.05;6.82;;;;;;;11.92;51.50;98290.19;5094185;28;20449;-77
2023/04/12 00:59:23;;;;;;;8.18;7.47;;;;;;;12.05;51.97;98304.09;5094271;28;20111;-79
2023/04/12 01:01:48;;;;;;;7.95;7.15;;;;;;;11.93;51.51;98273.28;5094537;28;20378;-78
2023/04/12 01:04:14;;;;;;;8.20;7.40;;;;;;;12.38;51.22;98340.84;5092762;28;20031;-78
2023/04/12 01:07:09;;;;;;;7.63;6.57;;;;;;;12.40;51.43;98353.84;5093982;28;20028;-77
2023/04/12 01:10:22;;;;;;;7.25;6.45;;;;;;;12.38;51.47;98345.31;5093910;28;20076;-78
2023/04/12 01:13:08;;;;;;;10.25;6.90;;;;;;;12.04;51.35;98305.13;5093696;28;20036;-77
2023/04/12 01:15:38;;;;;;;7.75;6.95;;;;;;;12.35;51.13;98351.06;5093948;28;20020;-78
2023/04/12 01:18:08;;;;;;;7.20;6.50;;;;;;;11.56;51.23;98240.59;5093837;28;20034;-78
2023/04/12 01:20:47;;;;;;;7.30;6.28;;;;;;;12.15;51.19;98313.38;5093645;28;20065;-78
2023/04/12 01:23:40;;;;;;;7.32;6.30;;;;;;;12.48;50.58;98355.41;5094219;28;20031;-78
2023/04/12 01:26:31;;;;;;;6.80;6.10;;;;;;;11.98;51.19;98287.50;5093619;28;20074;-78
2023/04/12 01:29:00;;;;;;;8.45;6.93;;;;;;;12.09;50.97;98291.25;5092224;28;20095;-77
2023/04/12 01:31:28;;;;;;;7.30;6.60;;;;;;;12.09;50.72;98289.41;5092944;28;20024;-78
2023/04/12 01:33:58;;;;;;;6.68;6.07;;;;;;;12.01;50.70;98279.13;5093234;28;20028;-78
2023/04/12 01:36:26;;;;;;;7.85;6.38;;;;;;;12.16;50.75;98283.25;5093199;28;20015;-77
2023/04/12 01:38:53;;;;;;;7.68;6.72;;;;;;;11.99;50.90;98252.06;5093215;28;20099;-78
2023/04/12 01:41:19;;;;;;;7.35;6.13;;;;;;;12.17;50.96;98298.09;5093167;28;20031;-78
2023/04/12 01:43:46;;;;;;;7.10;6.40;;;;;;;12.37;50.83;98312.75;5093214;28;20552;-79
2023/04/12 01:46:15;;;;;;;7.22;6.53;;;;;;;12.52;50.62;98336.22;5091924;28;20040;-77
2023/04/12 01:48:50;;;;;;;6.43;5.82;;;;;;;12.43;50.67;98329.59;5091989;28;20106;-78
2023/04/12 01:51:27;;;;;;;7.88;6.63;;;;;;;12.52;50.86;98336.22;5093184;28;20019;-77
2023/04/12 01:54:12;;;;;;;7.25;6.55;;;;;;;12.31;50.34;98302.22;5093167;28;20103;-77
2023/04/12 01:56:42;;;;;;;8.25;6.63;;;;;;;12.42;50.63;98322.69;5093373;28;20052;-77
2023/04/12 01:59:12;;;;;;;6.80;6.18;;;;;;;12.46;50.54;98323.84;5093063;28;20568;-77
2023/04/12 02:01:38;;;;;;;6.45;5.95;;;;;;;12.41;50.62;98313.94;5092914;28;20028;-78
2023/04/12 02:04:05;;;;;;;6.60;6.00;;;;;;;12.17;50.70;98280.38;5091478;28;20027;-79
2023/04/12 02:06:33;;;;;;;7.90;6.43;;;;;;;11.94;50.89;98243.97;5091412;28;20468;-77
2023/04/12 02:09:04;;;;;;;7.72;5.93;;;;;;;12.26;50.92;98288.84;5092733;28;20020;-78
2023/04/12 02:11:30;;;;;;;;;;;;;;;12.40;51.40;98335.31;5093292;28;20051;-77
2023/04/12 02:13:55;;;;;;;7.18;6.47;;;;;;;12.43;51.38;98331.44;5091339;28;19908;-78
2023/04/12 02:16:24;;;;;;;9.07;7.05;;;;;;;12.11;50.93;98283.91;5092436;28;20016;-77
2023/04/12 02:18:50;;;;;;;10.18;7.85;;;;;;;12.32;50.71;98309.16;5091173;28;20019;-78
2023/04/12 02:21:16;;;;;;;6.32;5.72;;;;;;;12.18;51.13;98297.88;5090976;28;20015;-77
2023/04/12 02:23:42;;;;;;;7.22;5.95;;;;;;;12.51;51.16;98334.59;5092546;28;20024;-79
2023/04/12 02:26:10;;;;;;;7.90;6.28;;;;;;;12.47;50.85;98330.78;5092317;28;20048;-77
2023/04/12 02:28:37;;;;;;;6.97;6.07;;;;;;;12.50;51.20;98332.97;5092420;28;20020;-78
2023/04/12 02:31:03;;;;;;;7.93;6.30;;;;;;;11.98;51.12;98253.09;5092293;28;20020;-78
2023/04/12 02:33:29;;;;;;;6.13;5.53;;;;;;;12.52;51.33;98330.91;5092449;28;20028;-78
2023/04/12 02:35:56;;;;;;;7.35;5.90;;;;;;;12.39;50.92;98304.59;5092236;28;20020;-78
2023/04/12 02:38:22;;;;;;;7.03;6.32;;;;;;;12.27;50.71;98293.13;5092202;28;20020;-78
2023/04/12 02:40:47;;;;;;;6.80;6.13;;;;;;;12.43;50.73;98297.81;5091005;28;20048;-77
2023/04/12 02:43:13;;;;;;;6.45;5.82;;;;;;;12.12;50.90;98258.25;5091660;28;20170;-77
2023/04/12 02:45:38;;;;;;;7.10;6.40;;;;;;;12.23;50.73;98282.16;5092167;28;20024;-76
2023/04/12 02:48:04;;;;;;;7.28;6.50;;;;;;;12.21;50.77;98276.28;5092113;28;20454;-78
2023/04/12 02:50:30;;;;;;;7.15;6.13;;;;;;;12.46;51.01;98307.16;5092016;28;20102;-77
2023/04/12 02:52:55;;;;;;;6.65;5.70;;;;;;;12.21;50.84;98275.47;5090525;28;20522;-77
2023/04/12 02:55:20;;;;;;;6.80;6.20;;;;;;;12.30;51.26;98293.47;5091948;28;20016;-77
2023/04/12 02:57:47;;;;;;;10.02;7.65;;;;;;;12.03;51.26;98260.38;5091793;28;20024;-77
2023/04/12 03:00:16;;;;;;;7.03;5.97;;;;;;;12.21;50.98;98276.28;5090495;28;20413;-77
2023/04/12 03:02:43;;;;;;;7.60;6.85;;;;;;;12.45;51.04;98313.50;5090533;28;20077;-77
2023/04/12 03:05:09;;;;;;;7.35;6.65;;;;;;;12.46;51.36;98326.50;5090902;28;20022;-78
2023/04/12 03:07:34;;;;;;;6.97;6.28;;;;;;;12.43;51.10;98326.13;5092738;28;20020;-78
2023/04/12 03:10:00;;;;;;;8.60;7.07;;;;;;;12.43;51.54;98326.13;5091712;28;20031;-77
2023/04/12 03:12:26;;;;;;;9.15;6.82;;;;;;;12.40;51.55;98314.97;5091573;28;20024;-77
2023/04/12 03:14:51;;;;;;;7.88;7.07;;;;;;;12.41;51.66;98329.81;5091546;28;20092;-77
2023/04/12 03:17:17;;;;;;;7.38;6.32;;;;;;;12.43;51.75;98312.91;5091630;28;20055;-77
2023/04/12 03:19:42;;;;;;;6.97;6.10;;;;;;;12.06;51.76;98281.91;5091591;28;20020;-76
2023/04/12 03:22:07;;;;;;;7.18;6.05;;;;;;;12.23;51.51;98302.53;5090397;28;20012;-76
2023/04/12 03:24:33;;;;;;;8.02;7.22;;;;;;;12.18;51.55;98292.59;5091959;28;20016;-76
2023/04/12 03:27:03;;;;;;;6.95;6.20;;;;;;;12.37;51.69;98318.03;5091457;28;20449;-76
2023/04/12 03:29:31;;;;;;;7.40;6.55;;;;;;;12.15;51.73;98276.34;5091417;28;20024;-79
2023/04/12 03:31:58;;;;;;;7.28;6.57;;;;;;;11.88;51.70;98246.66;5091383;28;20031;-78
2023/04/12 03:34:26;;;;;;;7.47;6.55;;;;;;;12.40;51.53;98316.78;5091406;28;20027;-78
2023/04/12 03:36:53;;;;;;;16.10;10.00;;;;;;;12.12;51.51;98284.72;5091808;28;20033;-78
2023/04/12 03:39:19;;;;;;;8.15;6.43;;;;;;;11.92;51.91;98259.25;5091778;28;20082;-78
2023/04/12 03:41:45;;;;;;;7.25;6.55;;;;;;;11.88;51.79;98250.13;5091456;28;20025;-78
2023/04/12 03:44:10;;;;;;;7.32;6.47;;;;;;;12.29;51.96;98314.88;5090168;28;20026;-78
2023/04/12 03:46:35;;;;;;;7.35;6.63;;;;;;;12.12;51.44;98292.66;5090472;28;20390;-78
2023/04/12 03:49:01;;;;;;;7.47;6.68;;;;;;;12.19;51.52;98294.22;5091551;28;20057;-77
2023/04/12 03:51:29;;;;;;;8.40;6.57;;;;;;;12.38;51.82;98321.50;5091407;28;20024;-79
2023/04/12 03:53:55;;;;;;;7.95;7.25;;;;;;;12.11;51.63;98285.75;5092814;28;20012;-78
2023/04/12 03:56:20;;;;;;;7.78;6.97;;;;;;;11.91;51.28;98252.34;5095528;28;20462;-78
2023/04/12 03:58:46;;;;;;;7.93;7.13;;;;;;;12.19;51.63;98303.97;5095188;28;20095;-78
2023/04/12 04:01:12;;;;;;;8.05;7.25;;;;;;;12.33;51.69;98321.34;5093961;28;20023;-77
2023/04/12 04:03:41;;;;;;;7.57;6.82;;;;;;;12.18;51.35;98305.81;5095344;28;20020;-78
2023/04/12 04:06:07;;;;;;;8.50;7.00;;;;;;;11.58;51.33;98205.00;5095096;28;20027;-79
2023/04/12 04:08:33;;;;;;;8.73;7.32;;;;;;;11.82;51.82;98247.53;5095260;28;20034;-78
2023/04/12 04:10:59;;;;;;;9.15;8.00;;;;;;;12.09;51.30;98304.47;5095113;28;20027;-77
2023/04/12 04:13:25;;;;;;;8.18;7.40;;;;;;;12.32;51.71;98322.38;5095209;28;20073;-78
2023/04/12 04:15:58;;;;;;;7.50;6.80;;;;;;;12.49;51.18;98349.91;5095053;28;20024;-77
2023/04/12 04:18:23;;;;;;;8.63;7.82;;;;;;;12.31;51.55;98312.81;5093687;28;20020;-78
2023/04/12 04:20:49;;;;;;;7.70;6.97;;;;;;;12.35;50.88;98330.69;5094925;28;20024;-78
2023/04/12 04:23:16;;;;;;;8.63;6.70;;;;;;;12.52;51.09;98353.94;5094826;28;20016;-78
2023/04/12 04:25:41;;;;;;;8.82;7.40;;;;;;;12.51;51.57;98355.78;5094676;28;20044;-77
2023/04/12 04:28:07;;;;;;;8.90;8.00;;;;;;;12.40;51.30;98337.97;5094908;28;20026;-78
2023/04/12 04:30:37;;;;;;;8.30;7.45;;;;;;;12.08;51.04;98289.63;5094766;28;20562;-77
2023/04/12 04:33:03;;;;;;;8.20;6.50;;;;;;;12.13;51.23;98318.91;5094616;28;20099;-77
2023/04/12 04:35:30;;;;;;;7.45;6.75;;;;;;;12.56;51.16;98355.13;5094565;28;20038;-78
2023/04/12 04:37:56;;;;;;;7.72;6.93;;;;;;;12.54;51.27;98365.94;5093200;28;20020;-78
2023/04/12 04:40:23;;;;;;;8.32;6.82;;;;;;;12.57;50.83;98357.53;5094556;28;20550;-79
2023/04/12 04:42:53;;;;;;;9.43;7.65;;;;;;;12.26;50.59;98310.03;5094492;28;20052;-78
2023/04/12 04:45:26;;;;;;;8.52;7.63;;;;;;;12.18;50.96;98289.94;5093131;28;20028;-77
2023/04/12 04:47:55;;;;;;;10.43;9.10;;;;;;;12.51;51.08;98358.44;5094515;28;20057;-77
2023/04/12 04:50:22;;;;;;;8.65;7.65;;;;;;;12.34;51.34;98309.72;5094157;28;20077;-77
2023/04/12 04:52:50;;;;;;;7.80;7.10;;;;;;;12.19;50.99;98296.03;5094662;28;20028;-78
2023/04/12 04:55:16;;;;;;;8.98;8.07;;;;;;;11.98;50.82;98265.50;5092976;28;20028;-77
2023/04/12 04:57:42;;;;;;;10.00;8.90;;;;;;;12.46;51.13;98350.31;5092945;28;20027;-79
2023/04/12 05:00:15;;;;;;;9.27;8.27;;;;;;;12.01;51.02;98273.00;5094172;28;20066;-77
2023/04/12 05:02:42;;;;;;;9.05;7.80;;;;;;;12.44;51.07;98339.16;5094424;28;20016;-77
2023/04/12 05:05:12;;;;;;;8.43;7.57;;;;;;;12.13;51.24;98294.28;5093273;28;20024;-78
2023/04/12 05:07:38;;;;;;;10.23;7.68;;;;;;;12.60;51.04;98366.88;5093955;28;20496;-78
2023/04/12 05:10:04;;;;;;;8.52;7.32;;;;;;;12.06;51.12;98299.63;5092818;28;20105;-78
2023/04/12 05:12:30;;;;;;;8.45;7.65;;;;;;;12.33;51.47;98355.75;5094377;28;20066;-78
2023/04/12 05:14:55;;;;;;;8.43;7.63;;;;;;;12.22;51.16;98304.34;5092782;28;20625;-78
2023/04/12 05:17:21;;;;;;;8.85;7.57;;;;;;;12.53;51.40;98342.31;5093885;28;20037;-78
2023/04/12 05:19:46;;;;;;;9.07;7.95;;;;;;;12.23;51.12;98299.88;5093024;28;20026;-78
2023/04/12 05:22:13;;;;;;;8.20;7.40;;;;;;;12.69;50.89;98363.75;5093570;28;20076;-78
2023/04/12 05:24:39;;;;;;;8.68;7.82;;;;;;;12.71;50.81;98374.94;5093590;28;20107;-77
2023/04/12 05:27:04;;;;;;;10.63;8.15;;;;;;;12.22;51.04;98317.59;5093198;28;20148;-75
2023/04/12 05:29:30;;;;;;;10.57;8.20;;;;;;;12.09;50.71;98285.97;5093525;28;20027;-78
2023/04/12 05:31:55;;;;;;;9.82;8.77;;;;;;;12.73;50.50;98380.84;5092287;28;20102;-77
2023/04/12 05:34:20;;;;;;;10.15;8.43;;;;;;;12.17;51.15;98287.50;5093178;28;20023;-77
2023/04/12 05:36:46;;;;;;;12.23;8.57;;;;;;;12.77;51.08;98381.19;5092697;28;20023;-77
2023/04/12 05:39:11;;;;;;;12.10;9.68;;;;;;;12.70;50.62;98360.09;5093067;28;20086;-77
2023/04/12 05:41:37;;;;;;;10.75;9.57;;;;;;;12.82;50.85;98377.88;5093217;28;20073;-76
2023/04/12 05:44:02;;;;;;;11.98;9.32;;;;;;;12.59;50.67;98342.25;5093370;28;20024;-77
2023/04/12 05:46:28;;;;;;;11.68;10.48;;;;;;;12.43;50.72;98311.06;5093201;28;20480;-77
2023/04/12 05:48:55;;;;;;;10.85;9.50;;;;;;;12.94;50.55;98392.00;5094071;28;20020;-77
2023/04/12 05:51:20;;;;;;;12.65;9.95;;;;;;;12.56;50.51;98331.28;5089835;28;20492;-78
2023/04/12 05:53:45;;;;;;;15.25;10.43;;;;;;;12.65;50.69;98336.09;5091120;28;20028;-78
2023/04/12 05:56:11;;;;;;;12.15;10.23;;;;;;;12.78;50.29;98363.47;5106283;28;20103;-77
2023/04/12 05:58:36;;;;;;;11.35;9.50;;;;;;;12.81;50.29;98345.28;5090249;28;20543;-77
2023/04/12 06:01:04;;;;;;;11.48;10.20;;;;;;;13.13;50.41;98385.66;5094531;28;20085;-75
2023/04/12 06:03:31;;;;;;;11.93;9.98;;;;;;;13.18;50.44;98407.03;5092243;28;20039;-76
2023/04/12 06:05:56;;;;;;;11.45;9.60;;;;;;;12.76;50.15;98325.81;5092867;28;20028;-75
2023/04/12 06:08:21;;;;;;;11.23;9.82;;;;;;;12.71;50.32;98313.22;5091820;28;20031;-78
2023/04/12 06:10:47;;;;;;;12.02;10.68;;;;;;;11.58;50.38;98135.47;5092619;28;20031;-77
2023/04/12 06:13:12;;;;;;;11.55;9.48;;;;;;;13.23;50.25;98382.53;5092246;28;20023;-77
2023/04/12 06:15:38;;;;;;;12.27;10.73;;;;;;;13.30;50.24;98386.72;5092410;28;20023;-77
2023/04/12 06:18:06;;;;;;;9.95;9.00;;;;;;;13.02;50.25;98344.03;5090145;28;20055;-77
2023/04/12 06:20:31;;;;;;;12.13;9.82;;;;;;;12.67;50.14;98278.44;5092299;28;20020;-77
2023/04/12 06:22:56;;;;;;;13.10;10.13;;;;;;;13.01;50.08;98329.16;5092075;28;20292;-77
2023/04/12 06:25:23;;;;;;;13.05;9.82;;;;;;;12.90;49.99;98300.78;5099305;28;20071;-77
2023/04/12 06:27:48;;;;;;;13.73;10.32;;;;;;;13.15;50.17;98335.91;5092558;28;20393;-77
2023/04/12 06:30:13;;;;;;;15.38;12.98;;;;;;;13.41;49.94;98366.63;5091421;28;20052;-77
2023/04/12 06:32:39;;;;;;;13.88;12.35;;;;;;;13.00;49.97;98290.44;5095196;28;20076;-78
2023/04/12 06:35:05;;;;;;;13.05;11.75;;;;;;;13.61;50.12;98374.28;5096885;28;20026;-77
2023/04/12 06:37:30;;;;;;;16.42;12.10;;;;;;;13.23;49.88;98303.81;5090573;28;20024;-77
2023/04/12 06:39:55;;;;;;;18.88;15.63;;;;;;;13.63;50.00;98351.81;5090111;28;20020;-77
2023/04/12 06:42:21;;;;;;;14.10;12.60;;;;;;;13.77;49.98;98364.88;5090110;28;20415;-77
2023/04/12 06:44:46;;;;;;;15.05;11.32;;;;;;;13.82;49.95;98363.16;5083399;28;20039;-78
2023/04/12 06:47:11;;;;;;;13.18;11.10;;;;;;;13.64;49.67;98334.84;5094007;28;20039;-77
2023/04/12 06:49:37;;;;;;;14.27;11.73;;;;;;;14.06;49.78;98373.81;5090687;28;20483;-77
2023/04/12 06:52:03;;;;;;;12.52;10.30;;;;;;;13.61;49.56;98289.41;5089295;28;20024;-77
2023/04/12 06:54:29;;;;;;;12.68;9.85;;;;;;;14.09;49.61;98368.84;5090072;28;20553;-78
2023/04/12 06:56:56;;;;;;;12.85;11.20;;;;;;;13.84;49.41;98308.03;5093951;28;20024;-77
2023/04/12 06:59:21;;;;;;;11.88;9.73;;;;;;;13.82;49.78;98319.91;5091157;28;20114;-78
2023/04/12 07:01:47;;;;;;;12.80;10.52;;;;;;;13.82;49.89;98331.31;5089156;28;20312;-77
2023/04/12 07:04:12;;;;;;;15.82;11.07;;;;;;;13.67;49.67;98278.72;5089447;28;20570;-78
2023/04/12 07:06:38;;;;;;;11.82;10.73;;;;;;;14.12;49.86;98333.91;5108408;28;20492;-77
2023/04/12 07:09:03;;;;;;;13.40;10.35;;;;;;;14.41;49.57;98350.78;5100306;28;20027;-78
2023/04/12 07:11:30;;;;;;;14.18;9.85;;;;;;;14.25;49.58;98323.06;5095714;28;20131;-78
2023/04/12 07:13:57;;;;;;;12.43;10.10;;;;;;;14.52;49.36;98352.63;5098847;28;20026;-77
2023/04/12 07:16:23;;;;;;;12.02;10.20;;;;;;;14.30;49.43;98301.13;5091819;28;20412;-77
2023/04/12 07:18:49;;;;;;;13.02;10.85;;;;;;;14.39;49.13;98313.00;5104391;27;20019;-78
2023/04/12 07:21:16;;;;;;;12.15;10.55;;;;;;;14.38;48.98;98300.78;5103398;28;20424;-78
2023/04/12 07:23:42;;;;;;;13.00;11.35;;;;;;;14.66;49.11;98353.19;5090472;28;20500;-78
2023/04/12 07:26:07;;;;;;;16.45;12.38;;;;;;;14.80;48.68;98369.69;5088492;28;20040;-77
2023/04/12 07:28:34;;;;;;;14.57;11.25;;;;;;;14.41;48.40;98326.06;5085117;28;20532;-77
2023/04/12 07:31:00;;;;;;;11.90;10.27;;;;;;;14.61;47.94;98343.28;5097383;28;20106;-78
2023/04/12 07:33:25;;;;;;;12.07;10.75;;;;;;;14.94;48.19;98377.22;5089931;28;20161;-77
2023/04/12 07:35:50;;;;;;;14.45;10.32;;;;;;;14.96;48.04;98374.31;5089924;28;20028;-78
2023/04/12 07:38:16;;;;;;;11.98;10.77;;;;;;;14.90;47.40;98361.97;5104030;28;20113;-78
2023/04/12 07:40:41;;;;;;;12.02;10.43;;;;;;;14.86;47.62;98360.78;5092503;28;20037;-77
2023/04/12 07:43:07;;;;;;;12.75;10.02;;;;;;;15.03;47.79;98361.69;5088441;28;20059;-78
2023/04/12 07:45:35;;;;;;;10.88;8.73;;;;;;;14.75;46.78;98356.31;5094701;28;20479;-78
2023/04/12 07:48:02;;;;;;;9.18;7.68;;;;;;;14.50;46.80;98296.28;5089899;28;20042;-77
2023/04/12 07:50:27;;;;;;;8.82;7.82;;;;;;;14.99;46.56;98357.91;5094262;28;20085;-77
2023/04/12 07:52:53;;;;;;;8.38;7.47;;;;;;;14.76;46.22;98321.53;5093813;28;20028;-77
2023/04/12 07:55:18;;;;;;;7.93;7.10;;;;;;;14.66;45.74;98310.69;5111277;28;20122;-77
2023/04/12 07:57:44;;;;;;;6.20;5.35;;;;;;;14.64;44.77;98304.81;5100017;28;20034;-77
2023/04/12 08:00:10;;;;;;;7.43;4.20;;;;;;;15.16;44.29;98356.13;5087585;28;20111;-77
2023/04/12 08:02:35;;;;;;;4.00;2.92;;;;;;;15.05;43.16;98334.88;5088604;28;20138;-78
2023/04/12 08:05:01;;;;;;;3.85;2.63;;;;;;;14.92;42.70;98320.00;5090718;28;20138;-77
2023/04/12 08:07:26;;;;;;;2.80;2.50;;;;;;;15.19;42.45;98347.66;5090771;28;20021;-78
2023/04/12 08:09:52;;;;;;;4.40;2.97;;;;;;;15.30;42.57;98355.84;5090053;28;20020;-78
2023/04/12 08:12:17;;;;;;;4.18;2.75;;;;;;;15.20;42.33;98353.78;5089671;28;20154;-78
2023/04/12 08:14:43;;;;;;;3.45;2.20;;;;;;;15.22;41.69;98325.13;5088474;28;20041;-78
2023/04/12 08:17:10;;;;;;;3.38;2.10;;;;;;;15.44;41.79;98331.38;5089053;28;20062;-77
2023/04/12 08:19:35;;;;;;;2.83;2.15;;;;;;;15.32;40.57;98332.47;5096882;28;20024;-76
2023/04/12 08:22:02;;;;;;;1.85;1.25;;;;;;;15.60;40.60;98356.41;5089208;28;20035;-76
2023/04/12 08:24:27;;;;;;;3.28;2.00;;;;;;;15.29;40.71;98288.53;5097397;28;20507;-78
2023/04/12 08:26:52;;;;;;;2.40;2.17;;;;;;;15.14;40.28;98291.72;5091809;28;20040;-78
2023/04/12 08:29:18;;;;;;;3.42;2.72;;;;;;;15.69;40.20;98338.25;5103937;28;20085;-76
2023/04/12 08:31:44;;;;;;;3.72;2.67;;;;;;;15.51;39.93;98349.84;5088840;28;20016;-76
2023/04/12 08:34:09;;;;;;;5.00;3.03;;;;;;;15.75;40.07;98355.91;5089873;28;20024;-76
2023/04/12 08:36:35;;;;;;;4.03;3.00;;;;;;;15.39;40.22;98311.84;5087819;28;20430;-76
2023/04/12 08:39:01;;;;;;;4.82;3.88;;;;;;;15.52;39.98;98332.84;5094379;28;20024;-78
2023/04/12 08:41:27;;;;;;;6.70;4.43;;;;;;;15.06;40.25;98262.06;5110376;28;20068;-77
2023/04/12 08:43:56;;;;;;;5.45;3.22;;;;;;;15.60;40.04;98343.13;5112338;28;20500;-78
2023/04/12 08:46:21;;;;;;;4.85;3.30;;;;;;;15.61;40.13;98328.00;5102460;28;20020;-76
2023/04/12 08:48:49;;;;;;;3.55;3.20;;;;;;;15.61;40.13;98326.13;5092354;28;20053;-78
2023/04/12 08:51:17;;;;;;;4.55;3.15;;;;;;;15.99;39.65;98367.22;5093409;28;20024;-79
2023/04/12 08:53:43;;;;;;;5.03;3.00;;;;;;;15.43;39.28;98299.69;5094954;28;20481;-78
2023/04/12 08:56:13;;;;;;;4.75;3.40;;;;;;;16.07;39.03;98369.47;5100189;28;20015;-77
2023/04/12 08:58:40;;;;;;;3.97;2.75;;;;;;;16.03;38.90;98358.50;5112030;28;20409;-77
2023/04/12 09:01:13;;;;;;;4.10;3.10;;;;;;;16.06;38.19;98366.00;5088005;28;20099;-78
2023/04/12 09:03:39;;;;;;;5.32;2.85;;;;;;;15.69;38.52;98306.31;5091546;28;20484;-78
2023/04/12 09:06:05;;;;;;;4.15;2.90;;;;;;;16.02;38.64;98383.50;5096364;28;20039;-78
2023/04/12 09:08:31;;;;;;;1.77;1.67;;;;;;;15.97;38.11;98372.78;5099615;28;20059;-75
2023/04/12 09:10:57;;;;;;;5.75;3.20;;;;;;;16.14;38.20;98375.44;5094088;28;20056;-77
2023/04/12 09:13:38;;;;;;;4.00;3.25;;;;;;;16.16;37.06;98336.06;5109328;28;20093;-77
2023/04/12 09:16:03;;;;;;;4.70;2.72;;;;;;;16.33;37.42;98326.19;5096749;28;20106;-78
2023/04/12 09:18:29;;;;;;;2.83;2.00;;;;;;;16.21;36.58;98291.69;5099319;28;20106;-77
2023/04/12 09:21:08;;;;;;;4.43;3.05;;;;;;;16.80;34.42;98347.13;5098668;28;20077;-77
2023/04/12 09:23:36;;;;;;;1.98;1.40;;;;;;;16.69;35.64;98302.75;5088668;28;20029;-77
2023/04/12 09:26:03;;;;;;;3.53;2.10;;;;;;;16.88;35.43;98285.38;5108613;28;20047;-77
2023/04/12 09:28:29;;;;;;;2.22;1.88;;;;;;;16.83;34.89;98240.00;5093751;28;20084;-77
2023/04/12 09:30:57;;;;;;;2.70;1.67;;;;;;;17.07;35.02;98292.00;5086460;28;20066;-77
2023/04/12 09:33:34;;;;;;;1.67;1.50;;;;;;;17.06;33.98;98281.59;5088165;28;20472;-77
2023/04/12 09:36:01;;;;;;;3.30;1.90;;;;;;;17.27;35.22;98303.97;5088920;28;20024;-78
2023/04/12 09:38:30;;;;;;;3.42;2.42;;;;;;;17.41;34.72;98275.81;5108054;28;20034;-78
2023/04/12 09:40:56;;;;;;;2.80;1.60;;;;;;;17.83;34.09;98325.88;5092226;28;20029;-77
2023/04/12 09:43:37;;;;;;;6.85;4.53;;;;;;;17.88;34.59;98317.94;5099737;28;20026;-78
2023/04/12 09:46:11;;;;;;;4.60;3.03;;;;;;;17.79;34.62;98278.31;5087912;28;20028;-78
2023/04/12 09:48:38;;;;;;;2.78;2.42;;;;;;;17.59;34.08;98283.47;5096084;28;20108;-78
2023/04/12 09:51:05;;;;;;;3.53;3.05;;;;;;;17.09;34.16;98196.59;5089911;28;20111;-78
2023/04/12 09:53:34;;;;;;;5.35;2.97;;;;;;;17.52;33.73;98301.53;5101604;28;20420;-78
2023/04/12 09:56:02;;;;;;;3.05;2.05;;;;;;;17.46;33.81;98338.06;5092168;28;20036;-78
2023/04/12 09:58:29;;;;;;;3.78;2.83;;;;;;;17.30;33.68;98303.47;5092748;28;20402;-77
2023/04/12 10:00:58;;;;;;;3.33;2.80;;;;;;;16.72;33.59;98225.78;5092464;28;20018;-77
2023/04/12 10:03:24;;;;;;;4.28;2.67;;;;;;;16.53;33.82;98227.91;5090589;28;20028;-78
2023/04/12 10:05:49;;;;;;;3.58;3.22;;;;;;;17.02;34.43;98317.81;5091600;28;20561;-77
2023/04/12 10:08:16;;;;;;;4.25;3.40;;;;;;;16.80;34.70;98301.81;5091285;28;20129;-78
2023/04/12 10:10:44;;;;;;;5.57;3.00;;;;;;;16.16;34.62;98208.25;5092379;28;20081;-77
2023/04/12 10:13:11;;;;;;;4.75;3.03;;;;;;;16.48;34.62;98261.69;5090572;28;20412;-78
2023/04/12 10:15:37;;;;;;;4.95;3.10;;;;;;;16.58;34.53;98256.50;5092225;28;20516;-78
2023/04/12 10:18:05;;;;;;;5.65;3.88;;;;;;;16.51;34.90;98232.69;5092398;28;20022;-78
2023/04/12 10:20:31;;;;;;;5.43;2.97;;;;;;;16.76;35.31;98290.84;5092230;28;20068;-78
2023/04/12 10:23:00;;;;;;;4.05;3.22;;;;;;;16.99;35.52;98332.44;5086710;28;20020;-78
2023/04/12 10:25:29;;;;;;;4.20;2.80;;;;;;;16.51;35.61;98258.53;5087388;28;20139;-78
2023/04/12 10:27:55;;;;;;;3.92;3.13;;;;;;;16.95;35.21;98298.53;5071066;28;20512;-77
2023/04/12 10:30:22;;;;;;;4.40;3.22;;;;;;;17.26;35.54;98329.03;5081752;28;20020;-76
2023/04/12 10:33:08;;;;;;;4.25;2.75;;;;;;;17.11;35.36;98341.16;5089322;28;20028;-77
2023/04/12 10:36:02;;;;;;;4.50;3.30;;;;;;;16.92;34.27;98329.16;5091581;28;20024;-78
2023/04/12 10:38:32;;;;;;;4.72;3.50;;;;;;;16.92;35.27;98315.84;5091808;28;20054;-79
2023/04/12 10:41:13;;;;;;;5.65;3.83;;;;;;;17.38;34.60;98333.16;5089414;28;20020;-77
2023/04/12 10:43:46;;;;;;;4.88;2.90;;;;;;;17.80;34.54;98340.53;5091451;28;20020;-77
2023/04/12 10:46:39;;;;;;;3.50;3.20;;;;;;;17.74;34.58;98326.31;5069583;28;20032;-77
2023/04/12 10:49:23;;;;;;;6.07;3.22;;;;;;;17.01;35.06;98257.53;5070895;28;20017;-77
2023/04/12 10:52:04;;;;;;;4.30;3.70;;;;;;;17.58;35.07;98329.09;5085376;28;20161;-76
2023/04/12 10:54:31;;;;;;;5.00;3.65;;;;;;;17.74;35.13;98304.16;5090289;28;20436;-77
2023/04/12 10:56:56;;;;;;;4.90;3.80;;;;;;;17.60;34.93;98255.72;5087342;28;20420;-77
2023/04/12 10:59:22;;;;;;;4.07;3.22;;;;;;;18.05;34.53;98284.66;5090920;28;20068;-79
2023/04/12 11:02:06;;;;;;;5.10;3.60;;;;;;;18.45;33.35;98325.25;5091670;28;20023;-76
2023/04/12 11:04:31;;;;;;;5.95;4.68;;;;;;;18.18;33.41;98288.75;5089366;28;20501;-78
2023/04/12 11:07:03;;;;;;;5.03;4.53;;;;;;;18.41;33.18;98255.47;5090948;28;20027;-77
2023/04/12 11:09:31;;;;;;;4.90;3.50;;;;;;;19.04;32.99;98310.63;5091196;28;20484;-78
2023/04/12 11:12:03;;;;;;;5.78;3.72;;;;;;;19.04;32.98;98304.47;5089626;28;20020;-78
2023/04/12 11:14:34;;;;;;;5.05;3.33;;;;;;;18.58;32.35;98287.38;5087908;28;20373;-76
2023/04/12 11:17:06;;;;;;;3.40;3.10;;;;;;;18.53;33.31;98306.06;5091154;28;20035;-76
2023/04/12 11:19:32;;;;;;;4.60;2.75;;;;;;;18.24;33.41;98335.03;5090930;28;20088;-76
2023/04/12 11:22:09;;;;;;;3.60;3.30;;;;;;;17.96;33.47;98338.81;5091147;28;20032;-78
2023/04/12 11:24:58;;;;;;;5.18;3.60;;;;;;;17.23;36.37;98313.53;5089340;28;20031;-78
2023/04/12 11:27:25;;;;;;;8.80;4.70;;;;;;;16.94;37.74;98356.38;5089022;28;20040;-76
2023/04/12 11:29:55;;;;;;;4.38;3.70;;;;;;;16.66;39.27;98338.69;5091007;28;20020;-77
2023/04/12 11:32:26;;;;;;;5.65;4.88;;;;;;;15.97;41.07;98265.50;5090938;28;20508;-77
2023/04/12 11:34:53;;;;;;;6.53;5.80;;;;;;;16.40;41.43;98339.38;5089522;28;20020;-77